Time;durP1;ratioP1;P1;durP2;ratioP2;P2;SDS_P1;SDS_P2;PMS_P1;PMS_P2;Temp;Humidity;BMP_temperature;BMP_pressure;BME280_temperature;BME280_humidity;BME280_pressure;Samples;Min_cycle;Max_cycle;Signal;HPM_P1;HPM_P2
2022/02/18 00:02:03;;;;;;;24.65;4.30;;;8.50;57.50;;;;;;5057979;28;20039;-78
2022/02/18 00:04:28;;;;;;;18.35;4.25;;;8.50;57.60;;;;;;5075821;28;20024;-80
2022/02/18 00:06:54;;;;;;;20.98;3.42;;;8.50;57.50;;;;;;5074663;28;20033;-80
2022/02/18 00:09:19;;;;;;;24.25;4.10;;;8.60;57.30;;;;;;5075810;28;20024;-81
2022/02/18 00:11:45;;;;;;;22.40;4.88;;;8.60;57.40;;;;;;5075718;28;20100;-80
2022/02/18 00:14:10;;;;;;;23.45;3.97;;;8.60;57.30;;;;;;5075930;28;20079;-79
2022/02/18 00:16:36;;;;;;;19.20;4.18;;;8.60;57.20;;;;;;5075656;28;20021;-79
2022/02/18 00:19:01;;;;;;;29.20;4.10;;;8.70;57.20;;;;;;5074308;28;20028;-80
2022/02/18 00:21:27;;;;;;;21.35;4.47;;;8.60;57.40;;;;;;5075598;28;20465;-79
2022/02/18 00:23:53;;;;;;;17.42;3.42;;;8.60;57.50;;;;;;5075435;28;20127;-79
2022/02/18 00:26:18;;;;;;;22.17;3.70;;;8.60;57.50;;;;;;5075438;28;20090;-79
2022/02/18 00:28:45;;;;;;;21.85;4.28;;;8.60;57.30;;;;;;5057515;28;20030;-79
2022/02/18 00:31:11;;;;;;;19.60;3.78;;;8.60;57.50;;;;;;5074104;28;20025;-79
2022/02/18 00:33:37;;;;;;;19.70;3.55;;;8.60;57.60;;;;;;5075356;28;20178;-80
2022/02/18 00:36:03;;;;;;;20.58;3.97;;;8.60;57.60;;;;;;5075390;28;20555;-80
2022/02/18 00:38:28;;;;;;;17.35;3.50;;;8.60;58.00;;;;;;5075253;28;20107;-80
2022/02/18 00:40:54;;;;;;;19.63;3.72;;;8.60;58.00;;;;;;5074953;28;20468;-80
2022/02/18 00:43:19;;;;;;;22.65;3.75;;;8.60;58.40;;;;;;5074293;28;20025;-80
2022/02/18 00:45:45;;;;;;;33.33;4.20;;;8.60;58.80;;;;;;5075176;28;20089;-80
2022/02/18 00:48:11;;;;;;;17.73;3.38;;;8.50;59.20;;;;;;5075101;28;20024;-80
2022/02/18 00:50:37;;;;;;;21.52;4.43;;;8.50;59.30;;;;;;5075065;28;20013;-80
2022/02/18 00:53:02;;;;;;;20.33;3.15;;;8.50;59.50;;;;;;5075103;28;20538;-80
2022/02/18 00:55:28;;;;;;;22.17;4.20;;;8.60;59.50;;;;;;5075059;28;20029;-80
2022/02/18 00:57:54;;;;;;;22.20;3.65;;;8.50;59.40;;;;;;5074997;28;20021;-79
2022/02/18 01:00:20;;;;;;;19.70;3.80;;;8.60;59.20;;;;;;5074958;28;20536;-80
2022/02/18 01:02:46;;;;;;;26.23;4.03;;;8.60;59.10;;;;;;5075096;28;20457;-79
2022/02/18 01:05:13;;;;;;;28.27;4.03;;;8.60;59.30;;;;;;5075207;28;20024;-79
2022/02/18 01:07:38;;;;;;;22.27;3.60;;;8.60;59.20;;;;;;5074729;28;20029;-79
2022/02/18 01:10:06;;;;;;;21.55;3.83;;;8.70;59.20;;;;;;5074677;28;20029;-79
2022/02/18 01:12:32;;;;;;;21.05;4.28;;;8.60;59.10;;;;;;5074681;28;20029;-80
2022/02/18 01:14:58;;;;;;;22.10;3.95;;;8.70;59.20;;;;;;5074613;28;20404;-79
2022/02/18 01:17:23;;;;;;;17.50;3.00;;;8.60;59.20;;;;;;5074539;28;20029;-79
2022/02/18 01:19:49;;;;;;;15.73;3.75;;;8.70;59.30;;;;;;5074720;28;20020;-79
2022/02/18 01:22:14;;;;;;;25.63;4.28;;;8.60;59.30;;;;;;5074417;28;20048;-79
2022/02/18 01:24:40;;;;;;;27.38;3.92;;;8.70;59.40;;;;;;5074170;28;20059;-80
2022/02/18 01:27:05;;;;;;;25.35;4.38;;;8.70;59.50;;;;;;5074392;28;20021;-80
2022/02/18 01:29:31;;;;;;;20.05;3.47;;;8.60;59.70;;;;;;5074250;28;20385;-79
2022/02/18 01:31:56;;;;;;;17.80;3.28;;;8.60;60.20;;;;;;5081651;28;20009;-80
2022/02/18 01:34:22;;;;;;;15.07;3.47;;;8.60;60.30;;;;;;5056519;28;20039;-79
2022/02/18 01:36:47;;;;;;;20.30;3.97;;;8.60;60.40;;;;;;5074379;28;20020;-79
2022/02/18 01:39:13;;;;;;;22.38;3.67;;;8.60;60.70;;;;;;5074372;28;20389;-80
2022/02/18 01:41:39;;;;;;;19.80;3.28;;;8.60;60.80;;;;;;5074089;28;20028;-79
2022/02/18 01:44:05;;;;;;;21.83;3.55;;;8.60;61.20;;;;;;5074099;28;20029;-80
2022/02/18 01:46:31;;;;;;;19.15;3.67;;;8.60;61.30;;;;;;5074068;28;20024;-80
2022/02/18 01:48:57;;;;;;;24.90;3.17;;;8.60;61.70;;;;;;5073944;28;20045;-80
2022/02/18 01:51:24;;;;;;;19.52;3.65;;;8.60;62.10;;;;;;5055850;28;20154;-79
2022/02/18 01:53:52;;;;;;;20.20;3.63;;;8.50;62.50;;;;;;5073370;28;20115;-80
2022/02/18 01:56:22;;;;;;;20.58;3.78;;;8.50;63.10;;;;;;5073817;28;20028;-80
2022/02/18 01:58:48;;;;;;;23.15;3.97;;;8.50;63.20;;;;;;5073657;28;20032;-79
2022/02/18 02:01:14;;;;;;;22.52;3.95;;;8.50;63.60;;;;;;5073658;28;20024;-80
2022/02/18 02:03:40;;;;;;;23.13;3.35;;;8.40;64.10;;;;;;5073612;28;20488;-79
2022/02/18 02:06:07;;;;;;;24.50;4.60;;;8.40;64.60;;;;;;5073511;28;20119;-78
2022/02/18 02:08:36;;;;;;;17.13;3.53;;;8.40;64.60;;;;;;5073555;28;20033;-80
2022/02/18 02:11:03;;;;;;;20.23;3.88;;;8.50;64.80;;;;;;5073541;28;20027;-82
2022/02/18 02:13:32;;;;;;;21.38;3.72;;;8.50;64.70;;;;;;5073447;28;20381;-80
2022/02/18 02:15:58;;;;;;;23.95;4.18;;;8.40;64.70;;;;;;5072051;28;20380;-79
2022/02/18 02:18:24;;;;;;;20.83;3.30;;;8.40;64.90;;;;;;5073326;28;20548;-81
2022/02/18 02:20:49;;;;;;;19.50;3.97;;;8.40;65.30;;;;;;5073411;28;20103;-81
2022/02/18 02:23:16;;;;;;;16.77;3.30;;;8.30;65.30;;;;;;5073333;28;20025;-80
2022/02/18 02:25:41;;;;;;;23.98;4.10;;;8.30;65.40;;;;;;5073097;28;20052;-81
2022/02/18 02:28:07;;;;;;;23.33;3.70;;;8.30;65.70;;;;;;5055430;28;20024;-80
2022/02/18 02:30:33;;;;;;;21.75;3.88;;;8.30;65.90;;;;;;5073370;28;20448;-80
2022/02/18 02:32:58;;;;;;;27.17;3.53;;;8.30;66.10;;;;;;5073257;28;20024;-81
2022/02/18 02:35:24;;;;;;;22.67;3.83;;;8.30;66.00;;;;;;5073065;28;20028;-79
2022/02/18 02:37:49;;;;;;;22.52;4.30;;;8.30;65.60;;;;;;5073149;28;20025;-81
2022/02/18 02:40:18;;;;;;;20.02;4.13;;;8.30;65.70;;;;;;5072970;28;20028;-78
2022/02/18 02:42:45;;;;;;;20.60;3.40;;;8.30;65.60;;;;;;5073105;28;20437;-79
2022/02/18 02:45:11;;;;;;;21.65;3.28;;;8.30;65.50;;;;;;5073085;28;20427;-80
2022/02/18 02:47:39;;;;;;;31.15;4.07;;;8.30;65.60;;;;;;5073014;28;20039;-79
2022/02/18 02:50:05;;;;;;;18.10;3.55;;;8.30;65.70;;;;;;5073106;28;20028;-79
2022/02/18 02:52:31;;;;;;;16.02;3.40;;;8.20;65.50;;;;;;5073022;28;20028;-79
2022/02/18 02:54:57;;;;;;;18.35;3.60;;;8.20;65.60;;;;;;5072786;28;20390;-79
2022/02/18 02:57:22;;;;;;;18.63;3.72;;;8.20;65.60;;;;;;5072874;28;20035;-80
2022/02/18 02:59:48;;;;;;;21.08;3.88;;;8.20;65.50;;;;;;5072848;28;20021;-79
2022/02/18 03:02:14;;;;;;;22.92;3.75;;;8.20;65.50;;;;;;5072882;28;20025;-79
2022/02/18 03:04:39;;;;;;;25.10;3.67;;;8.20;65.10;;;;;;5072890;28;20051;-80
2022/02/18 03:07:05;;;;;;;15.32;3.33;;;8.20;65.10;;;;;;5076967;28;20457;-80
2022/02/18 03:09:31;;;;;;;16.58;3.35;;;8.20;64.90;;;;;;5076856;28;20016;-79
2022/02/18 03:11:56;;;;;;;18.55;3.55;;;8.20;64.90;;;;;;5076941;28;20362;-79
2022/02/18 03:14:24;;;;;;;20.65;3.33;;;8.20;64.80;;;;;;5058843;28;20424;-80
2022/02/18 03:16:49;;;;;;;25.33;3.65;;;8.20;64.70;;;;;;5076801;28;20020;-80
2022/02/18 03:19:15;;;;;;;21.48;3.65;;;8.20;64.90;;;;;;5076805;28;20035;-80
2022/02/18 03:21:41;;;;;;;22.42;3.53;;;8.10;64.80;;;;;;5076617;28;20354;-80
2022/02/18 03:24:06;;;;;;;15.20;3.25;;;8.10;64.80;;;;;;5076468;28;20028;-79
2022/02/18 03:26:32;;;;;;;20.60;3.97;;;8.10;65.20;;;;;;5076522;28;20473;-80
2022/02/18 03:28:57;;;;;;;25.45;4.10;;;8.00;65.40;;;;;;5076477;28;20048;-78
2022/02/18 03:31:23;;;;;;;19.10;3.60;;;8.00;65.60;;;;;;5075095;28;20571;-78
2022/02/18 03:33:48;;;;;;;27.65;4.93;;;8.00;65.80;;;;;;5076393;28;20550;-78
2022/02/18 03:36:14;;;;;;;28.23;3.97;;;7.90;66.20;;;;;;5076493;28;20469;-78
2022/02/18 03:38:39;;;;;;;19.20;4.22;;;8.00;66.20;;;;;;5076338;28;20035;-79
2022/02/18 03:41:05;;;;;;;17.90;3.95;;;7.90;66.40;;;;;;5076345;28;20020;-80
2022/02/18 03:43:31;;;;;;;21.80;4.05;;;7.90;66.20;;;;;;5076346;28;20024;-80
2022/02/18 03:45:57;;;;;;;27.83;4.22;;;7.90;66.50;;;;;;5076287;28;20047;-80
2022/02/18 03:48:22;;;;;;;20.80;4.40;;;7.90;66.60;;;;;;5076055;28;20468;-80
2022/02/18 03:50:48;;;;;;;20.00;3.42;;;7.90;66.80;;;;;;5076060;28;20033;-81
2022/02/18 03:53:16;;;;;;;27.88;3.95;;;7.90;67.00;;;;;;5076107;28;20029;-80
2022/02/18 03:55:42;;;;;;;21.50;4.68;;;7.90;67.00;;;;;;5076698;28;20071;-81
2022/02/18 03:58:07;;;;;;;26.50;3.85;;;7.90;67.20;;;;;;5076203;28;20028;-80
2022/02/18 04:00:34;;;;;;;25.73;3.70;;;7.90;67.30;;;;;;5076305;28;20032;-80
2022/02/18 04:02:59;;;;;;;23.58;3.63;;;7.90;67.10;;;;;;5076320;28;20116;-80
2022/02/18 04:05:25;;;;;;;17.77;3.22;;;7.90;68.00;;;;;;5076130;28;20086;-80
2022/02/18 04:07:50;;;;;;;17.52;3.75;;;7.90;66.90;;;;;;5076136;28;20029;-80
2022/02/18 04:10:16;;;;;;;19.70;3.45;;;8.00;66.80;;;;;;5075978;28;20024;-80
2022/02/18 04:12:41;;;;;;;16.13;3.80;;;8.00;66.60;;;;;;5076056;28;20440;-81
2022/02/18 04:15:08;;;;;;;19.45;4.45;;;8.10;66.70;;;;;;5075880;28;20036;-81
2022/02/18 04:17:33;;;;;;;21.23;3.42;;;8.10;66.70;;;;;;5075688;28;20435;-80
2022/02/18 04:19:59;;;;;;;12.65;3.67;;;8.10;67.00;;;;;;5075879;28;20024;-78
2022/02/18 04:22:25;;;;;;;18.60;3.97;;;8.20;67.20;;;;;;5075594;28;20029;-79
2022/02/18 04:24:50;;;;;;;24.83;4.30;;;8.20;67.30;;;;;;5075669;28;20510;-81
2022/02/18 04:27:16;;;;;;;18.38;4.45;;;8.20;68.10;;;;;;5075683;28;20097;-81
2022/02/18 04:29:42;;;;;;;31.50;3.50;;;8.20;68.70;;;;;;5075521;28;20020;-79
2022/02/18 04:32:08;;;;;;;19.77;4.00;;;8.30;70.20;;;;;;5075636;28;20546;-81
2022/02/18 04:34:34;;;;;;;22.35;3.85;;;8.30;69.60;;;;;;5075387;28;20082;-80
2022/02/18 04:36:59;;;;;;;23.77;4.25;;;8.30;68.90;;;;;;5075512;28;20025;-79
2022/02/18 04:39:25;;;;;;;23.00;3.50;;;8.30;68.20;;;;;;5075320;28;20028;-81
2022/02/18 04:41:50;;;;;;;25.23;4.45;;;8.30;67.50;;;;;;5075393;28;20496;-80
2022/02/18 04:44:16;;;;;;;24.65;3.67;;;8.20;67.30;;;;;;5075424;28;20028;-80
2022/02/18 04:46:43;;;;;;;19.95;3.97;;;8.20;67.90;;;;;;5075388;28;20021;-79
2022/02/18 04:49:08;;;;;;;23.02;3.17;;;8.20;67.90;;;;;;5075198;28;20051;-80
2022/02/18 04:51:37;;;;;;;20.20;3.40;;;8.10;68.50;;;;;;5075347;28;20493;-80
2022/02/18 04:54:05;;;;;;;16.38;3.30;;;8.00;68.80;;;;;;5075320;28;20044;-80
2022/02/18 04:56:31;;;;;;;23.98;3.40;;;8.00;69.00;;;;;;5075334;28;20436;-79
2022/02/18 04:58:57;;;;;;;24.98;3.50;;;8.00;69.10;;;;;;5075094;28;20100;-79
2022/02/18 05:01:23;;;;;;;16.23;2.92;;;8.00;69.20;;;;;;5074898;28;20059;-80
2022/02/18 05:03:50;;;;;;;19.75;3.58;;;7.90;70.30;;;;;;5057189;28;20021;-81
2022/02/18 05:06:16;;;;;;;39.55;4.72;;;7.90;69.60;;;;;;5074890;28;20024;-80
2022/02/18 05:08:41;;;;;;;17.98;3.33;;;7.80;69.60;;;;;;5074935;28;20046;-80
2022/02/18 05:11:07;;;;;;;22.90;4.90;;;7.70;70.30;;;;;;5074914;28;20032;-81
2022/02/18 05:13:32;;;;;;;24.23;4.18;;;7.70;70.50;;;;;;5074897;28;20489;-80
2022/02/18 05:15:58;;;;;;;20.55;3.65;;;7.70;70.40;;;;;;5074778;28;20039;-80
2022/02/18 05:18:24;;;;;;;24.50;3.45;;;7.70;70.50;;;;;;5074685;28;20028;-79
2022/02/18 05:20:49;;;;;;;20.90;3.95;;;7.70;70.50;;;;;;5074844;28;20017;-80
2022/02/18 05:23:15;;;;;;;28.60;5.03;;;7.70;70.60;;;;;;5074693;28;20020;-81
2022/02/18 05:25:40;;;;;;;28.77;4.90;;;7.70;70.70;;;;;;5074595;28;20510;-80
2022/02/18 05:28:07;;;;;;;18.95;3.88;;;7.70;70.80;;;;;;5074271;28;20148;-81
2022/02/18 05:30:33;;;;;;;21.35;3.25;;;7.70;70.80;;;;;;5074657;28;20032;-79
2022/02/18 05:32:58;;;;;;;21.90;3.95;;;7.70;70.90;;;;;;5074606;28;20032;-80
2022/02/18 05:35:24;;;;;;;25.98;5.35;;;7.60;70.90;;;;;;5074197;28;20035;-81
2022/02/18 05:37:50;;;;;;;23.80;5.22;;;7.70;71.00;;;;;;5074334;28;20024;-79
2022/02/18 05:40:16;;;;;;;20.40;5.85;;;7.60;70.90;;;;;;5074388;28;20024;-79
2022/02/18 05:42:42;;;;;;;21.20;4.88;;;7.60;71.10;;;;;;5057481;28;20384;-80
2022/02/18 05:45:08;;;;;;;16.55;3.42;;;7.60;71.30;;;;;;5074875;28;20051;-79
2022/02/18 05:47:35;;;;;;;18.58;4.57;;;7.60;71.50;;;;;;5074008;28;20028;-80
2022/02/18 05:50:03;;;;;;;20.08;3.70;;;7.60;71.50;;;;;;5072668;28;20021;-80
2022/02/18 05:52:28;;;;;;;30.23;6.50;;;7.60;71.90;;;;;;5074074;28;20028;-80
2022/02/18 05:54:54;;;;;;;29.88;8.77;;;7.60;72.20;;;;;;5073727;28;20127;-80
2022/02/18 05:57:19;;;;;;;19.48;5.97;;;7.60;72.60;;;;;;5073731;28;20035;-80
2022/02/18 05:59:45;;;;;;;23.75;5.93;;;7.70;72.90;;;;;;5073643;28;20031;-80
2022/02/18 06:02:10;;;;;;;19.60;4.53;;;7.70;73.00;;;;;;5073933;28;20028;-80
2022/02/18 06:04:36;;;;;;;22.42;4.40;;;7.80;73.10;;;;;;5073476;28;20024;-80
2022/02/18 06:07:01;;;;;;;14.35;3.53;;;7.80;73.30;;;;;;5073432;28;20477;-79
2022/02/18 06:09:27;;;;;;;17.17;3.28;;;8.00;73.20;;;;;;5073131;28;20307;-80
2022/02/18 06:11:53;;;;;;;15.13;4.10;;;8.00;73.10;;;;;;5073391;28;20027;-80
2022/02/18 06:14:18;;;;;;;14.32;4.72;;;8.00;73.10;;;;;;5073215;28;20036;-78
2022/02/18 06:16:44;;;;;;;17.98;4.30;;;8.10;73.00;;;;;;5073408;28;20542;-80
2022/02/18 06:19:10;;;;;;;17.85;3.40;;;8.20;73.30;;;;;;5073391;28;20021;-79
2022/02/18 06:21:37;;;;;;;10.02;2.92;;;8.20;73.10;;;;;;5073265;28;20075;-78
2022/02/18 06:24:02;;;;;;;13.88;2.70;;;8.30;73.10;;;;;;5073180;28;20133;-80
2022/02/18 06:26:28;;;;;;;10.85;2.22;;;8.30;73.20;;;;;;5073417;28;20495;-80
2022/02/18 06:28:53;;;;;;;12.60;2.80;;;8.30;73.50;;;;;;5073290;28;20111;-81
2022/02/18 06:31:19;;;;;;;13.27;2.35;;;8.30;73.70;;;;;;5073090;28;20024;-80
2022/02/18 06:33:46;;;;;;;13.18;2.33;;;8.30;73.60;;;;;;5072272;28;20430;-80
2022/02/18 06:36:12;;;;;;;12.40;2.40;;;8.40;73.60;;;;;;5072849;28;20020;-79
2022/02/18 06:38:40;;;;;;;6.53;1.60;;;8.40;73.80;;;;;;5072702;28;20546;-80
2022/02/18 06:41:06;;;;;;;8.52;2.13;;;8.40;73.90;;;;;;5072629;28;20469;-80
2022/02/18 06:43:31;;;;;;;7.03;2.00;;;8.50;74.00;;;;;;5054560;28;20505;-81
2022/02/18 06:45:57;;;;;;;13.13;2.65;;;8.50;74.10;;;;;;5072627;28;20024;-80
2022/02/18 06:48:22;;;;;;;8.23;2.15;;;8.60;74.10;;;;;;5072659;28;20016;-82
2022/02/18 06:50:48;;;;;;;11.13;2.17;;;8.50;74.50;;;;;;5072798;28;20103;-80
2022/02/18 06:53:14;;;;;;;8.85;1.88;;;8.60;74.70;;;;;;5071624;28;20346;-78
2022/02/18 06:55:39;;;;;;;10.70;2.03;;;8.60;74.70;;;;;;5054649;28;20473;-81
2022/02/18 06:58:05;;;;;;;10.75;1.80;;;8.70;74.90;;;;;;5072722;28;20021;-79
2022/02/18 07:00:31;;;;;;;6.97;1.85;;;8.70;75.20;;;;;;5072551;28;20020;-78
2022/02/18 07:02:56;;;;;;;6.03;1.27;;;8.70;76.10;;;;;;5072591;28;20341;-80
2022/02/18 07:05:22;;;;;;;4.65;1.23;;;9.00;77.90;;;;;;5071150;28;20098;-76
2022/02/18 07:07:47;;;;;;;5.90;1.08;;;9.20;77.10;;;;;;5072730;28;20060;-77
2022/02/18 07:10:14;;;;;;;5.45;1.10;;;9.50;76.40;;;;;;5073012;28;20104;-79
2022/02/18 07:12:41;;;;;;;4.40;1.23;;;9.60;75.30;;;;;;5072606;28;20081;-81
2022/02/18 07:15:08;;;;;;;4.75;0.93;;;9.80;75.40;;;;;;5073281;28;20385;-81
2022/02/18 07:17:35;;;;;;;3.60;1.42;;;10.00;74.30;;;;;;5072451;28;20162;-83
2022/02/18 07:20:02;;;;;;;5.80;0.73;;;10.10;74.10;;;;;;5072117;28;20035;-79
2022/02/18 07:22:28;;;;;;;5.15;0.80;;;10.10;73.60;;;;;;5072485;28;20380;-82
2022/02/18 07:24:54;;;;;;;3.92;1.42;;;10.20;73.60;;;;;;5072404;28;20052;-80
2022/02/18 07:27:20;;;;;;;3.22;0.57;;;10.10;74.50;;;;;;5072646;28;20029;-83
2022/02/18 07:29:46;;;;;;;4.43;0.82;;;10.20;73.80;;;;;;5071495;28;20495;-84
2022/02/18 07:32:13;;;;;;;6.78;0.90;;;10.30;73.90;;;;;;5072898;28;20024;-82
2022/02/18 07:34:39;;;;;;;4.80;0.60;;;10.30;74.00;;;;;;5072094;28;20033;-81
2022/02/18 07:37:04;;;;;;;3.38;0.65;;;10.30;74.00;;;;;;5072285;28;20025;-79
2022/02/18 07:39:30;;;;;;;3.00;0.80;;;10.30;74.20;;;;;;5071722;28;20035;-81
2022/02/18 07:41:56;;;;;;;3.70;0.57;;;10.20;74.50;;;;;;5071943;28;20044;-83
2022/02/18 07:44:22;;;;;;;4.40;1.10;;;10.20;74.90;;;;;;5071481;28;20021;-81
2022/02/18 07:46:48;;;;;;;4.72;0.98;;;10.20;75.00;;;;;;5071635;28;20070;-78
2022/02/18 07:49:14;;;;;;;2.85;0.85;;;10.10;75.10;;;;;;5071648;28;20089;-77
2022/02/18 07:51:40;;;;;;;5.50;0.77;;;10.20;74.90;;;;;;5073218;28;20021;-76
2022/02/18 07:54:06;;;;;;;3.50;0.70;;;10.20;74.70;;;;;;5075194;28;20059;-76
2022/02/18 07:56:32;;;;;;;4.22;1.10;;;10.20;74.60;;;;;;5075472;28;20025;-78
2022/02/18 07:58:57;;;;;;;6.05;0.90;;;10.30;74.60;;;;;;5074011;28;20028;-77
2022/02/18 08:01:23;;;;;;;6.68;1.17;;;10.30;74.20;;;;;;5075516;28;20024;-78
2022/02/18 08:03:51;;;;;;;3.33;0.98;;;10.30;74.20;;;;;;5075720;28;20483;-78
2022/02/18 08:06:17;;;;;;;1.70;0.68;;;10.30;73.80;;;;;;5075554;28;20024;-77
2022/02/18 08:08:43;;;;;;;3.78;1.30;;;10.30;73.70;;;;;;5075205;28;20021;-76
2022/02/18 08:11:10;;;;;;;3.33;0.70;;;10.30;73.80;;;;;;5075509;28;20101;-76
2022/02/18 08:13:36;;;;;;;6.07;1.05;;;10.40;73.60;;;;;;5075269;28;20029;-78
2022/02/18 08:16:02;;;;;;;4.55;1.30;;;10.40;73.40;;;;;;5075539;28;20370;-76
2022/02/18 08:18:27;;;;;;;6.38;1.17;;;10.40;73.20;;;;;;5075365;28;20384;-78
2022/02/18 08:20:53;;;;;;;7.25;1.70;;;10.40;72.90;;;;;;5075352;28;20099;-75
2022/02/18 08:23:19;;;;;;;4.85;1.00;;;10.40;72.50;;;;;;5075285;28;20461;-77
2022/02/18 08:25:45;;;;;;;3.95;0.90;;;10.50;72.30;;;;;;5075322;28;20049;-78
2022/02/18 08:28:11;;;;;;;8.77;1.10;;;10.50;73.00;;;;;;5075351;28;20026;-76
2022/02/18 08:30:36;;;;;;;5.20;1.25;;;10.50;72.30;;;;;;5075020;28;20028;-77
2022/02/18 08:33:02;;;;;;;3.60;0.95;;;10.50;71.60;;;;;;5075118;28;20052;-77
2022/02/18 08:35:28;;;;;;;3.67;0.90;;;10.50;73.20;;;;;;5075047;28;20063;-77
2022/02/18 08:37:54;;;;;;;5.47;1.13;;;10.60;73.10;;;;;;5074768;28;20056;-77
2022/02/18 08:40:20;;;;;;;3.30;0.88;;;10.70;73.00;;;;;;5074480;28;20033;-79
2022/02/18 08:42:46;;;;;;;4.30;0.75;;;10.80;73.20;;;;;;5074712;28;20065;-76
2022/02/18 08:45:12;;;;;;;1.98;0.60;;;10.80;73.10;;;;;;5074751;28;20020;-80
2022/02/18 08:47:38;;;;;;;3.60;0.63;;;10.90;74.00;;;;;;5074250;28;20176;-77
2022/02/18 08:50:05;;;;;;;2.67;0.75;;;11.00;73.00;;;;;;5074550;28;20103;-79
2022/02/18 08:52:30;;;;;;;1.75;0.50;;;11.00;72.80;;;;;;5073000;28;20385;-79
2022/02/18 08:54:56;;;;;;;3.03;0.60;;;11.10;72.80;;;;;;5074354;28;20032;-79
2022/02/18 08:57:22;;;;;;;2.00;0.50;;;11.20;72.50;;;;;;5074611;28;20450;-80
2022/02/18 08:59:47;;;;;;;2.22;0.52;;;11.30;72.30;;;;;;5074674;28;20036;-79
2022/02/18 09:02:13;;;;;;;3.20;0.65;;;11.30;72.10;;;;;;5073861;28;20435;-78
2022/02/18 09:04:39;;;;;;;2.75;0.65;;;11.40;72.00;;;;;;5073730;28;20021;-80
2022/02/18 09:07:05;;;;;;;2.53;0.68;;;11.60;71.20;;;;;;5074377;28;20487;-77
2022/02/18 09:09:30;;;;;;;1.77;0.60;;;11.80;70.60;;;;;;5074469;28;20024;-79
2022/02/18 09:11:56;;;;;;;3.03;0.63;;;11.80;70.40;;;;;;5056519;28;20020;-79
2022/02/18 09:14:22;;;;;;;5.25;0.70;;;11.90;70.20;;;;;;5074307;28;20044;-77
2022/02/18 09:16:47;;;;;;;3.20;0.75;;;12.00;70.10;;;;;;5074282;28;20024;-76
2022/02/18 09:19:13;;;;;;;2.72;0.57;;;12.00;69.80;;;;;;5074036;28;20124;-79
2022/02/18 09:21:39;;;;;;;4.60;0.70;;;12.10;69.70;;;;;;5073965;28;20021;-78
2022/02/18 09:24:06;;;;;;;3.15;0.82;;;12.10;68.90;;;;;;5056290;28;20076;-81
2022/02/18 09:26:31;;;;;;;1.98;0.50;;;12.10;68.70;;;;;;5074093;28;20039;-78
2022/02/18 09:28:57;;;;;;;5.00;0.73;;;12.00;69.10;;;;;;5074190;28;20071;-79
2022/02/18 09:31:23;;;;;;;3.72;0.70;;;12.10;68.50;;;;;;5074056;28;20021;-77
2022/02/18 09:33:50;;;;;;;3.03;0.57;;;12.10;68.80;;;;;;5073805;28;20032;-79
2022/02/18 09:36:16;;;;;;;4.13;1.05;;;12.10;68.70;;;;;;5072495;28;20032;-76
2022/02/18 09:38:42;;;;;;;3.85;0.70;;;12.10;68.70;;;;;;5073668;28;20036;-81
2022/02/18 09:41:08;;;;;;;4.97;0.88;;;12.30;68.30;;;;;;5073680;28;20104;-79
2022/02/18 09:43:36;;;;;;;5.28;1.00;;;12.50;67.50;;;;;;5073632;28;20023;-80
2022/02/18 09:46:03;;;;;;;1.92;0.63;;;12.60;66.60;;;;;;5073461;28;20017;-78
2022/02/18 09:48:29;;;;;;;4.10;1.20;;;12.70;66.20;;;;;;5073277;28;20020;-79
2022/02/18 09:50:56;;;;;;;4.60;0.73;;;12.80;66.10;;;;;;5073546;28;20469;-78
2022/02/18 09:53:21;;;;;;;6.60;0.85;;;13.10;65.60;;;;;;5073749;28;20048;-80
2022/02/18 09:55:48;;;;;;;4.75;0.95;;;13.10;64.70;;;;;;5073340;28;20129;-79
2022/02/18 09:58:18;;;;;;;3.15;0.90;;;13.10;64.10;;;;;;5073349;28;20028;-80
2022/02/18 10:00:43;;;;;;;9.43;1.27;;;13.30;64.10;;;;;;5073372;28;20350;-78
2022/02/18 10:03:11;;;;;;;3.35;1.20;;;13.40;63.10;;;;;;5073114;28;20031;-78
2022/02/18 10:05:36;;;;;;;5.30;1.20;;;13.10;63.60;;;;;;5072835;28;20027;-76
2022/02/18 10:08:04;;;;;;;6.07;1.00;;;13.00;64.40;;;;;;5072883;28;20017;-81
2022/02/18 10:10:30;;;;;;;1.73;0.68;;;13.10;64.30;;;;;;5073243;28;20432;-81
2022/02/18 10:12:55;;;;;;;4.18;0.80;;;13.40;63.70;;;;;;5073226;28;20051;-80
2022/02/18 10:15:21;;;;;;;6.15;0.80;;;13.50;62.80;;;;;;5072915;28;20036;-81
2022/02/18 10:17:47;;;;;;;4.97;1.10;;;13.60;62.40;;;;;;5073108;28;20100;-80
2022/02/18 10:20:16;;;;;;;4.80;0.95;;;13.70;62.20;;;;;;5072176;28;20477;-79
2022/02/18 10:23:03;;;;;;;4.20;1.17;;;13.90;61.30;;;;;;5073537;28;20017;-81
2022/02/18 10:25:48;;;;;;;4.97;1.52;;;14.20;60.40;;;;;;5074747;28;20202;-79
2022/02/18 10:28:16;;;;;;;6.32;1.33;;;14.10;60.80;;;;;;5072416;28;20119;-79
2022/02/18 10:30:44;;;;;;;7.40;1.70;;;14.30;60.50;;;;;;5074030;28;20027;-80
2022/02/18 10:33:20;;;;;;;4.97;1.20;;;14.40;59.60;;;;;;5071591;28;20028;-82
2022/02/18 10:35:48;;;;;;;5.88;1.20;;;14.60;59.30;;;;;;5072872;28;20029;-80
2022/02/18 10:38:14;;;;;;;6.82;1.00;;;14.80;58.20;;;;;;5073332;28;20207;-82
2022/02/18 10:40:49;;;;;;;4.35;1.13;;;14.90;57.90;;;;;;5073098;28;20067;-81
2022/02/18 10:43:18;;;;;;;7.95;1.17;;;15.10;57.30;;;;;;5074758;28;20024;-78
2022/02/18 10:46:01;;;;;;;2.90;0.90;;;15.20;56.30;;;;;;5073783;28;20031;-80
2022/02/18 10:48:32;;;;;;;6.30;1.23;;;15.30;56.20;;;;;;5073040;28;20354;-79
2022/02/18 10:51:14;;;;;;;8.50;1.38;;;15.20;56.60;;;;;;5072719;28;20055;-80
2022/02/18 10:53:43;;;;;;;3.38;0.90;;;15.20;56.70;;;;;;5072551;28;20020;-80
2022/02/18 10:56:12;;;;;;;8.75;1.00;;;15.30;57.30;;;;;;5072794;28;20034;-80
2022/02/18 10:58:42;;;;;;;11.80;2.00;;;15.30;56.10;;;;;;5072674;28;20638;-80
2022/02/18 11:01:25;;;;;;;10.50;1.27;;;15.50;55.20;;;;;;5072472;28;20021;-79
2022/02/18 11:04:00;;;;;;;6.72;1.02;;;15.70;54.50;;;;;;5072387;28;20097;-79
2022/02/18 11:06:33;;;;;;;6.43;1.35;;;16.00;53.40;;;;;;5072118;28;20103;-80
2022/02/18 11:09:08;;;;;;;4.45;1.10;;;16.20;52.70;;;;;;5071999;28;20036;-81
2022/02/18 11:11:38;;;;;;;8.18;1.45;;;16.20;52.80;;;;;;5071054;28;20021;-81
2022/02/18 11:14:08;;;;;;;9.98;2.22;;;15.60;54.40;;;;;;5072277;28;20534;-81
2022/02/18 11:16:38;;;;;;;5.55;1.20;;;15.60;54.60;;;;;;5072492;28;20060;-79
2022/02/18 11:19:03;;;;;;;10.75;1.33;;;15.70;55.10;;;;;;5073072;28;20048;-80
2022/02/18 11:21:30;;;;;;;6.32;1.20;;;15.60;54.80;;;;;;5072824;28;20028;-80
2022/02/18 11:23:58;;;;;;;9.77;1.38;;;15.60;54.90;;;;;;5072301;28;20032;-79
2022/02/18 11:26:27;;;;;;;10.05;1.58;;;15.30;56.00;;;;;;5073584;28;20054;-82
2022/02/18 11:28:53;;;;;;;6.57;1.05;;;15.20;56.70;;;;;;5076636;28;20029;-79
2022/02/18 11:31:24;;;;;;;4.97;1.02;;;15.10;56.50;;;;;;5076095;28;20019;-81
2022/02/18 11:33:52;;;;;;;8.77;1.25;;;15.00;57.40;;;;;;5074959;28;20062;-80
2022/02/18 11:36:43;;;;;;;7.82;1.20;;;15.00;57.50;;;;;;5075912;28;20070;-81
2022/02/18 11:39:36;;;;;;;6.35;1.20;;;15.10;58.00;;;;;;5075825;28;20028;-81
2022/02/18 11:42:05;;;;;;;7.13;1.38;;;15.50;56.10;;;;;;5075800;28;20029;-81
2022/02/18 11:44:33;;;;;;;5.63;1.00;;;15.90;54.90;;;;;;5075987;28;20035;-81
2022/02/18 11:47:15;;;;;;;9.40;1.77;;;16.00;53.90;;;;;;5076195;28;20024;-81
2022/02/18 11:49:42;;;;;;;6.45;1.55;;;16.30;52.20;;;;;;5075932;28;20028;-81
2022/02/18 11:52:13;;;;;;;9.52;1.48;;;16.50;51.60;;;;;;5075297;28;20033;-79
2022/02/18 11:54:39;;;;;;;6.53;1.50;;;16.60;51.30;;;;;;5075547;28;20059;-78
2022/02/18 11:57:07;;;;;;;17.08;1.73;;;16.80;50.10;;;;;;5075556;28;20099;-78
2022/02/18 12:00:01;;;;;;;15.50;1.58;;;16.70;49.10;;;;;;5075644;28;20028;-81
2022/02/18 12:02:51;;;;;;;10.50;1.58;;;16.40;50.00;;;;;;5074372;28;20024;-81
2022/02/18 12:05:18;;;;;;;14.10;1.77;;;16.40;50.40;;;;;;5075779;28;20075;-80
2022/02/18 12:07:53;;;;;;;7.22;1.60;;;16.70;48.90;;;;;;5086008;22;20374;-79
2022/02/18 12:10:27;;;;;;;8.02;1.52;;;17.10;47.50;;;;;;5077440;28;20081;-77
2022/02/18 12:13:07;;;;;;;8.80;1.95;;;17.30;46.10;;;;;;5077700;28;20032;-78
2022/02/18 12:15:36;;;;;;;7.50;1.27;;;17.40;45.40;;;;;;5077047;28;20576;-78
2022/02/18 12:18:08;;;;;;;9.05;1.35;;;17.00;46.30;;;;;;5077113;28;20032;-79
2022/02/18 12:20:42;;;;;;;12.50;3.30;;;16.90;46.90;;;;;;5077464;28;20028;-78
2022/02/18 12:23:28;;;;;;;14.30;2.03;;;16.80;46.70;;;;;;5078315;28;20380;-78
2022/02/18 12:26:24;;;;;;;6.72;1.20;;;16.80;46.70;;;;;;5077606;28;20473;-78
2022/02/18 12:28:53;;;;;;;12.75;2.03;;;16.60;47.90;;;;;;5077534;28;20354;-78
2022/02/18 12:31:21;;;;;;;10.45;1.55;;;16.50;48.10;;;;;;5095230;28;20113;-78
2022/02/18 12:33:47;;;;;;;10.50;1.60;;;16.60;47.70;;;;;;5095111;28;20042;-78
2022/02/18 12:36:16;;;;;;;12.48;1.60;;;16.60;47.50;;;;;;5077381;28;20126;-79
2022/02/18 12:38:46;;;;;;;3.70;1.10;;;16.60;48.00;;;;;;5076712;28;20070;-79
2022/02/18 12:41:21;;;;;;;4.82;1.17;;;16.80;46.80;;;;;;5076509;28;20059;-79
2022/02/18 12:43:47;;;;;;;9.70;1.42;;;17.10;45.80;;;;;;5076747;28;20533;-79
2022/02/18 12:46:13;;;;;;;8.90;1.42;;;17.20;46.90;;;;;;5076567;28;20028;-79